createdAt,value
2022-08-04T00:01:54.154Z,100617.75
2022-08-04T00:04:38.013Z,100615.84
2022-08-04T00:07:16.568Z,100616.20
2022-08-04T00:10:00.030Z,100620.29
2022-08-04T00:12:39.218Z,100617.94
2022-08-04T00:15:15.086Z,100617.80
2022-08-04T00:17:54.340Z,100619.66
2022-08-04T00:20:29.480Z,100619.42
2022-08-04T00:23:00.759Z,100618.88
2022-08-04T00:25:30.399Z,100619.15
2022-08-04T00:28:02.269Z,100619.73
2022-08-04T00:30:34.103Z,100618.22
2022-08-04T00:33:03.939Z,100616.65
2022-08-04T00:35:33.764Z,100621.61
2022-08-04T00:38:04.137Z,100623.54
2022-08-04T00:40:53.794Z,100622.77
2022-08-04T00:43:35.677Z,100620.31
2022-08-04T00:46:41.667Z,100615.52
2022-08-04T00:49:53.742Z,100617.73
2022-08-04T00:52:46.935Z,100615.61
2022-08-04T00:55:33.738Z,100615.20
2022-08-04T00:58:19.089Z,100613.21
2022-08-04T01:01:01.160Z,100616.41
2022-08-04T01:04:09.202Z,100619.66
2022-08-04T01:06:44.889Z,100621.14
2022-08-04T01:09:48.899Z,100624.95
2022-08-04T01:12:37.674Z,100625.38
2022-08-04T01:15:23.570Z,100624.56
2022-08-04T01:18:27.530Z,100628.09
2022-08-04T01:21:30.309Z,100625.88
2022-08-04T01:24:59.979Z,100624.06
2022-08-04T01:28:02.399Z,100630.55
2022-08-04T01:30:33.696Z,100630.51
2022-08-04T01:33:13.881Z,100633.61
2022-08-04T01:35:56.540Z,100631.35
2022-08-04T01:38:42.691Z,100632.90
2022-08-04T01:41:19.345Z,100630.73
2022-08-04T01:44:03.140Z,100628.70
2022-08-04T01:46:36.645Z,100632.42
2022-08-04T01:49:07.418Z,100631.59
2022-08-04T01:51:40.066Z,100630.55
2022-08-04T01:54:10.700Z,100630.56
2022-08-04T01:57:02.059Z,100630.89
2022-08-04T02:00:08.868Z,100630.55
2022-08-04T02:02:41.807Z,100630.94
2022-08-04T02:05:20.206Z,100626.80
2022-08-04T02:08:46.230Z,100627.55
2022-08-04T02:11:26.252Z,100625.28
2022-08-04T02:14:47.227Z,100624.82
2022-08-04T02:17:51.833Z,100617.18
2022-08-04T02:21:21.071Z,100617.39
2022-08-04T02:24:34.509Z,100614.95
2022-08-04T02:28:00.603Z,100611.64
2022-08-04T02:31:30.434Z,100613.17
2022-08-04T02:34:32.751Z,100611.55
2022-08-04T02:37:34.458Z,100607.20
2022-08-04T02:40:30.005Z,100605.09
2022-08-04T02:43:11.172Z,100604.88
2022-08-04T02:46:05.500Z,100605.75
2022-08-04T02:48:57.919Z,100600.93
2022-08-04T02:51:39.754Z,100596.27
2022-08-04T02:54:31.562Z,100599.09
2022-08-04T02:58:07.742Z,100596.02
2022-08-04T03:01:07.904Z,100598.89
2022-08-04T03:04:47.928Z,100595.04
2022-08-04T03:08:43.068Z,100598.71
2022-08-04T03:12:04.533Z,100598.98
2022-08-04T03:15:45.084Z,100602.55
2022-08-04T03:18:35.370Z,100602.45
2022-08-04T03:21:47.263Z,100602.33
2022-08-04T03:24:43.638Z,100604.80
2022-08-04T03:27:28.752Z,100608.07
2022-08-04T03:30:56.275Z,100605.60
2022-08-04T03:33:37.875Z,100606.85
2022-08-04T03:36:35.151Z,100605.31
2022-08-04T03:39:48.645Z,100609.02
2022-08-04T03:42:39.787Z,100610.04
2022-08-04T03:45:38.988Z,100608.65
2022-08-04T03:48:43.755Z,100613.45
2022-08-04T03:51:52.992Z,100614.62
2022-08-04T03:54:53.026Z,100615.05
2022-08-04T03:58:09.584Z,100614.34
2022-08-04T04:01:07.584Z,100612.50
2022-08-04T04:04:29.484Z,100610.47
2022-08-04T04:07:44.984Z,100612.09
2022-08-04T04:10:52.586Z,100612.48
2022-08-04T04:14:02.197Z,100613.79
2022-08-04T04:17:09.294Z,100611.98
2022-08-04T04:19:46.930Z,100611.41
2022-08-04T04:22:52.680Z,100615.00
2022-08-04T04:25:46.341Z,100616.73
2022-08-04T04:28:44.736Z,100621.13
2022-08-04T04:31:36.271Z,100629.66
2022-08-04T04:34:46.234Z,100625.45
2022-08-04T04:37:47.715Z,100626.23
2022-08-04T04:40:57.862Z,100626.36
2022-08-04T04:44:06.843Z,100625.89
2022-08-04T04:47:17.641Z,100628.27
2022-08-04T04:50:21.191Z,100625.89
2022-08-04T04:53:36.259Z,100626.45
2022-08-04T04:56:35.745Z,100627.86
2022-08-04T04:59:15.701Z,100627.40
2022-08-04T05:01:52.085Z,100623.30
2022-08-04T05:04:58.521Z,100626.92
2022-08-04T05:08:43.945Z,100631.40
2022-08-04T05:11:49.545Z,100628.27
2022-08-04T05:14:41.219Z,100628.09
2022-08-04T05:17:32.006Z,100629.30
2022-08-04T05:20:06.486Z,100630.11
2022-08-04T05:22:57.065Z,100628.13
2022-08-04T05:25:37.764Z,100630.59
2022-08-04T05:28:18.674Z,100635.64
2022-08-04T05:31:12.220Z,100635.48
2022-08-04T05:33:54.714Z,100636.19
2022-08-04T05:36:41.791Z,100637.17
2022-08-04T05:39:19.486Z,100636.59
2022-08-04T05:41:54.981Z,100638.08
2022-08-04T05:44:28.275Z,100635.77
2022-08-04T05:47:00.413Z,100636.08
2022-08-04T05:49:30.534Z,100640.77
2022-08-04T05:52:06.761Z,100643.81
2022-08-04T05:54:38.097Z,100639.81
2022-08-04T05:57:09.183Z,100646.02
2022-08-04T05:59:42.543Z,100643.73
2022-08-04T06:02:18.074Z,100645.15
2022-08-04T06:04:52.807Z,100650.89
2022-08-04T06:07:22.319Z,100651.66
2022-08-04T06:09:51.575Z,100646.48
2022-08-04T06:12:37.873Z,100647.48
2022-08-04T06:15:11.406Z,100647.82
2022-08-04T06:19:56.791Z,100647.31
2022-08-04T06:20:50.024Z,100653.05
2022-08-04T06:23:22.105Z,100656.28
2022-08-04T06:25:57.361Z,100657.98
2022-08-04T06:28:29.333Z,100658.09
2022-08-04T06:32:26.837Z,100657.00
2022-08-04T06:33:54.316Z,100656.92
2022-08-04T06:36:25.483Z,100658.86
2022-08-04T06:38:58.824Z,100656.70
2022-08-04T06:41:31.066Z,100663.00
2022-08-04T06:44:05.443Z,100667.15
2022-08-04T06:46:41.528Z,100665.64
2022-08-04T06:49:13.681Z,100665.49
2022-08-04T06:51:49.506Z,100665.83
2022-08-04T06:54:18.971Z,100666.11
2022-08-04T06:56:49.962Z,100666.55
2022-08-04T06:59:24.029Z,100664.66
2022-08-04T07:01:54.552Z,100666.20
2022-08-04T07:04:24.359Z,100667.98
2022-08-04T07:06:56.078Z,100669.77
2022-08-04T07:09:25.502Z,100669.02
2022-08-04T07:11:55.730Z,100667.79
2022-08-04T07:14:27.355Z,100663.19
2022-08-04T07:16:57.368Z,100665.20
2022-08-04T07:19:26.555Z,100663.54
2022-08-04T07:22:16.824Z,100664.30
2022-08-04T07:24:46.628Z,100665.14
2022-08-04T07:27:17.636Z,100664.31
2022-08-04T07:30:07.708Z,100666.61
2022-08-04T07:32:41.717Z,100669.42
2022-08-04T07:36:04.039Z,100669.99
2022-08-04T07:38:04.217Z,100667.45
2022-08-04T07:40:40.596Z,100670.22
2022-08-04T07:43:10.431Z,100666.73
2022-08-04T07:45:39.645Z,100661.37
2022-08-04T07:48:12.657Z,100661.55
2022-08-04T07:50:45.007Z,100661.23
2022-08-04T07:53:53.069Z,100661.28
2022-08-04T07:56:04.373Z,100663.59
2022-08-04T07:58:33.334Z,100662.63
2022-08-04T08:01:02.543Z,100661.11
2022-08-04T08:03:32.582Z,100659.06
2022-08-04T08:06:30.600Z,100659.21
2022-08-04T08:08:52.002Z,100656.27
2022-08-04T08:11:21.581Z,100656.44
2022-08-04T08:13:51.212Z,100653.95
2022-08-04T08:16:21.318Z,100651.02
2022-08-04T08:18:56.405Z,100647.72
2022-08-04T08:21:25.662Z,100647.46
2022-08-04T08:23:56.178Z,100646.22
2022-08-04T08:26:25.645Z,100647.06
2022-08-04T08:28:54.823Z,100646.02
2022-08-04T08:31:57.506Z,100644.62
2022-08-04T08:34:14.462Z,100645.55
2022-08-04T08:37:14.131Z,100645.83
2022-08-04T08:40:01.743Z,100650.47
2022-08-04T08:42:59.234Z,100650.41
2022-08-04T08:46:49.545Z,100652.20
2022-08-04T08:50:03.061Z,100653.02
2022-08-04T08:53:29.183Z,100652.98
2022-08-04T08:56:10.025Z,100655.67
2022-08-04T08:59:24.395Z,100653.55
2022-08-04T09:02:40.923Z,100650.81
2022-08-04T09:05:55.511Z,100648.15
2022-08-04T09:09:04.673Z,100653.58
2022-08-04T09:12:30.492Z,100648.41
2022-08-04T09:15:38.003Z,100645.34
2022-08-04T09:18:21.275Z,100646.02
2022-08-04T09:21:37.714Z,100645.58
2022-08-04T09:24:35.816Z,100644.41
2022-08-04T09:27:18.546Z,100642.84
2022-08-04T09:30:13.847Z,100640.38
2022-08-04T09:33:16.505Z,100642.69
2022-08-04T09:36:03.126Z,100641.21
2022-08-04T09:39:09.802Z,100635.59
2022-08-04T09:42:23.170Z,100632.97
2022-08-04T09:45:43.266Z,100630.68
2022-08-04T09:48:55.800Z,100629.42
2022-08-04T09:51:56.952Z,100625.39
2022-08-04T09:54:58.857Z,100621.43
2022-08-04T09:58:12.992Z,100621.81
2022-08-04T10:00:50.145Z,100621.27
2022-08-04T10:03:25.079Z,100621.84
2022-08-04T10:06:31.947Z,100620.56
2022-08-04T10:09:45.117Z,100616.30
2022-08-04T10:12:25.264Z,100617.39
2022-08-04T10:15:11.698Z,100613.02
2022-08-04T10:18:17.447Z,100610.27
2022-08-04T10:21:10.266Z,100607.23
2022-08-04T10:24:13.338Z,100605.13
2022-08-04T10:27:23.011Z,100603.25
2022-08-04T10:29:58.770Z,100600.44
2022-08-04T10:32:43.117Z,100601.65
2022-08-04T10:35:23.799Z,100603.80
2022-08-04T10:41:50.827Z,100606.15
2022-08-04T10:45:01.325Z,100599.70
2022-08-04T10:47:35.691Z,100598.98
2022-08-04T10:50:09.437Z,100589.27
2022-08-04T10:53:09.936Z,100589.07
2022-08-04T10:56:07.379Z,100583.77
2022-08-04T10:58:48.561Z,100584.05
2022-08-04T11:01:59.846Z,100587.77
2022-08-04T11:04:47.638Z,100580.33
2022-08-04T11:07:17.943Z,100578.58
2022-08-04T11:09:52.762Z,100573.11
2022-08-04T11:12:32.708Z,100571.16
2022-08-04T11:15:23.857Z,100573.50
2022-08-04T11:18:16.812Z,100574.19
2022-08-04T11:21:03.553Z,100569.41
2022-08-04T11:23:37.957Z,100569.53
2022-08-04T11:26:18.451Z,100569.45
2022-08-04T11:29:04.072Z,100570.30
2022-08-04T11:31:40.184Z,100569.16
2022-08-04T11:34:31.270Z,100568.63
2022-08-04T11:37:19.333Z,100565.52
2022-08-04T11:40:16.834Z,100562.06
2022-08-04T11:43:08.983Z,100563.40
2022-08-04T11:46:02.228Z,100558.38
2022-08-04T11:49:14.517Z,100555.31
2022-08-04T11:52:37.548Z,100551.74
2022-08-04T11:56:09.410Z,100554.09
2022-08-04T11:58:30.961Z,100547.96
2022-08-04T12:01:29.464Z,100549.20
2022-08-04T12:04:35.431Z,100544.76
2022-08-04T12:07:30.677Z,100543.21
2022-08-04T12:10:41.220Z,100541.87
2022-08-04T12:14:15.529Z,100539.18
2022-08-04T12:17:02.132Z,100537.66
2022-08-04T12:20:03.932Z,100537.39
2022-08-04T12:22:44.253Z,100538.15
2022-08-04T12:25:44.879Z,100537.00
2022-08-04T12:28:28.244Z,100534.17
2022-08-04T12:31:28.295Z,100536.75
2022-08-04T12:34:35.589Z,100534.64
2022-08-04T12:37:49.755Z,100534.59
2022-08-04T12:40:31.671Z,100533.63
2022-08-04T12:43:12.060Z,100533.86
2022-08-04T12:45:51.084Z,100526.35
2022-08-04T12:48:22.913Z,100522.55
2022-08-04T12:50:57.563Z,100525.40
2022-08-04T12:53:50.569Z,100524.77
2022-08-04T12:56:27.985Z,100523.38
2022-08-04T12:59:12.802Z,100519.19
2022-08-04T13:02:08.098Z,100519.91
2022-08-04T13:04:51.314Z,100515.30
2022-08-04T13:07:24.977Z,100512.17
2022-08-04T13:09:54.269Z,100512.89
2022-08-04T13:12:31.967Z,100509.80
2022-08-04T13:15:22.214Z,100506.16
2022-08-04T13:18:15.153Z,100502.08
2022-08-04T13:20:46.063Z,100497.63
2022-08-04T13:23:21.941Z,100497.52
2022-08-04T13:26:42.489Z,100485.20
2022-08-04T13:28:47.319Z,100479.67
2022-08-04T13:31:21.095Z,100479.79
2022-08-04T13:33:54.325Z,100484.75
2022-08-04T13:36:29.053Z,100486.60
2022-08-04T13:39:08.543Z,100481.36
2022-08-04T13:41:43.890Z,100479.72
2022-08-04T13:44:20.418Z,100480.25
2022-08-04T13:47:01.597Z,100480.67
2022-08-04T13:49:54.179Z,100481.23
2022-08-04T13:52:26.981Z,100478.96
2022-08-04T13:54:55.997Z,100476.41
2022-08-04T13:57:45.196Z,100476.56
2022-08-04T14:00:19.475Z,100474.04
2022-08-04T14:03:23.863Z,100475.79
2022-08-04T14:06:26.909Z,100471.30
2022-08-04T14:09:00.836Z,100467.95
2022-08-04T14:12:10.859Z,100464.05
2022-08-04T14:14:34.183Z,100462.98
2022-08-04T14:17:20.232Z,100459.17
2022-08-04T14:20:00.120Z,100454.61
2022-08-04T14:22:31.891Z,100447.45
2022-08-04T14:25:18.084Z,100447.99
2022-08-04T14:27:57.094Z,100440.70
2022-08-04T14:30:37.837Z,100442.11
2022-08-04T14:34:01.616Z,100448.11
2022-08-04T14:36:04.358Z,100451.84
2022-08-04T14:38:47.101Z,100448.14
2022-08-04T14:41:19.810Z,100446.97
2022-08-04T14:43:53.333Z,100444.81
2022-08-04T14:46:30.353Z,100443.07
2022-08-04T14:49:12.923Z,100442.56
2022-08-04T14:51:45.107Z,100439.20
2022-08-04T14:54:18.816Z,100438.77
2022-08-04T14:57:02.093Z,100436.96
2022-08-04T14:59:59.430Z,100433.64
2022-08-04T15:02:36.243Z,100437.85
2022-08-04T15:06:00.050Z,100434.05
2022-08-04T15:07:58.486Z,100432.73
2022-08-04T15:10:28.981Z,100432.19
2022-08-04T15:12:59.532Z,100431.42
2022-08-04T15:15:37.045Z,100430.26
2022-08-04T15:18:11.558Z,100425.96
2022-08-04T15:20:44.659Z,100424.16
2022-08-04T15:23:14.337Z,100424.10
2022-08-04T15:25:57.634Z,100420.92
2022-08-04T15:28:29.755Z,100421.67
2022-08-04T15:31:02.040Z,100420.27
2022-08-04T15:33:34.056Z,100417.48
2022-08-04T15:36:35.625Z,100418.13
2022-08-04T15:39:30.081Z,100418.28
2022-08-04T15:42:20.880Z,100416.73
2022-08-04T15:45:21.936Z,100414.89
2022-08-04T15:48:03.026Z,100412.02
2022-08-04T15:50:33.006Z,100406.61
2022-08-04T15:53:10.775Z,100404.32
2022-08-04T15:55:43.961Z,100401.27
2022-08-04T15:58:15.787Z,100403.57
2022-08-04T16:00:50.780Z,100406.48
2022-08-04T16:03:59.189Z,100404.27
2022-08-04T16:06:26.833Z,100405.69
2022-08-04T16:09:01.559Z,100409.27
2022-08-04T16:11:33.357Z,100402.48
2022-08-04T16:14:08.377Z,100403.24
2022-08-04T16:16:37.588Z,100403.23
2022-08-04T16:19:35.464Z,100403.31
2022-08-04T16:22:05.556Z,100400.11
2022-08-04T16:24:40.609Z,100401.10
2022-08-04T16:27:11.711Z,100399.79
2022-08-04T16:29:48.134Z,100398.05
2022-08-04T16:32:26.485Z,100395.78
2022-08-04T16:35:03.865Z,100393.18
2022-08-04T16:37:37.975Z,100391.02
2022-08-04T16:40:31.735Z,100389.33
2022-08-04T16:43:14.834Z,100387.84
2022-08-04T16:45:59.069Z,100387.44
2022-08-04T16:48:34.714Z,100388.09
2022-08-04T16:51:15.183Z,100389.06
2022-08-04T16:53:52.324Z,100386.48
2022-08-04T16:56:34.383Z,100387.95
2022-08-04T16:59:12.185Z,100388.99
2022-08-04T17:01:51.838Z,100389.81
2022-08-04T17:04:35.291Z,100382.50
2022-08-04T17:07:06.349Z,100387.11
2022-08-04T17:09:35.466Z,100385.98
2022-08-04T17:12:04.859Z,100394.05
2022-08-04T17:14:33.984Z,100394.31
2022-08-04T17:17:04.569Z,100391.87
2022-08-04T17:19:38.075Z,100392.71
2022-08-04T17:22:11.358Z,100396.20
2022-08-04T17:24:41.220Z,100394.88
2022-08-04T17:28:09.131Z,100395.90
2022-08-04T17:30:00.282Z,100395.93
2022-08-04T17:32:35.326Z,100396.93
2022-08-04T17:35:10.070Z,100393.77
2022-08-04T17:37:52.509Z,100392.03
2022-08-04T17:40:25.383Z,100391.67
2022-08-04T17:44:01.653Z,100390.05
2022-08-04T17:46:28.793Z,100390.34
2022-08-04T17:49:02.393Z,100389.21
2022-08-04T17:52:05.354Z,100389.17
2022-08-04T17:54:40.647Z,100391.14
2022-08-04T17:57:21.330Z,100394.75
2022-08-04T17:59:59.641Z,100393.56
2022-08-04T18:02:34.984Z,100393.45
2022-08-04T18:05:11.839Z,100393.77
2022-08-04T18:08:39.050Z,100394.67
2022-08-04T18:13:44.083Z,100399.29
2022-08-04T18:16:21.765Z,100399.19
2022-08-04T18:19:13.140Z,100397.69
2022-08-04T18:22:00.265Z,100400.90
2022-08-04T18:24:35.482Z,100399.35
2022-08-04T18:27:26.476Z,100403.79
2022-08-04T18:30:33.986Z,100404.41
2022-08-04T18:33:24.617Z,100407.70
2022-08-04T18:36:35.479Z,100404.13
2022-08-04T18:38:58.913Z,100399.25
2022-08-04T18:41:30.413Z,100402.38
2022-08-04T18:44:27.395Z,100404.34
2022-08-04T18:51:01.774Z,100396.48
2022-08-04T18:52:45.411Z,100400.62
2022-08-04T18:55:56.149Z,100404.13
2022-08-04T18:58:11.788Z,100403.36
2022-08-04T19:03:33.328Z,100411.17
2022-08-04T19:06:03.156Z,100407.42
2022-08-04T19:08:42.066Z,100414.72
2022-08-04T19:11:35.232Z,100415.23
2022-08-04T19:14:05.143Z,100419.16
2022-08-04T19:16:47.317Z,100420.89
2022-08-04T19:19:20.238Z,100421.89
2022-08-04T19:22:00.350Z,100422.92
2022-08-04T19:24:34.741Z,100422.35
2022-08-04T19:27:16.326Z,100423.02
2022-08-04T19:29:46.209Z,100421.99
2022-08-04T19:32:16.279Z,100424.77
2022-08-04T19:34:49.904Z,100424.73
2022-08-04T19:37:58.416Z,100428.63
2022-08-04T19:40:33.599Z,100427.92
2022-08-04T19:43:15.290Z,100428.03
2022-08-04T19:45:45.762Z,100429.15
2022-08-04T19:51:04.641Z,100428.59
2022-08-04T19:53:37.586Z,100429.08
2022-08-04T19:56:07.570Z,100433.63
2022-08-04T19:58:38.605Z,100431.34
2022-08-04T20:01:14.429Z,100434.20
2022-08-04T20:04:08.961Z,100432.56
2022-08-04T20:06:39.802Z,100436.12
2022-08-04T20:09:26.312Z,100440.48
2022-08-04T20:11:57.344Z,100437.41
2022-08-04T20:14:32.727Z,100439.64
2022-08-04T20:17:10.351Z,100443.45
2022-08-04T20:19:40.025Z,100446.09
2022-08-04T20:22:51.945Z,100447.12
2022-08-04T20:25:27.249Z,100445.85
2022-08-04T20:28:00.081Z,100448.33
2022-08-04T20:30:31.034Z,100449.40
2022-08-04T20:33:04.088Z,100453.71
2022-08-04T20:35:46.038Z,100448.99
2022-08-04T20:38:33.388Z,100448.19
2022-08-04T20:41:03.519Z,100450.42
2022-08-04T20:43:32.904Z,100451.73
2022-08-04T20:46:18.598Z,100451.55
2022-08-04T20:48:52.622Z,100455.31
2022-08-04T20:51:31.819Z,100453.14
2022-08-04T20:54:04.448Z,100449.06
2022-08-04T20:56:51.264Z,100451.30
2022-08-04T20:59:22.896Z,100451.91
2022-08-04T21:01:53.956Z,100446.03
2022-08-04T21:04:31.635Z,100446.71
2022-08-04T21:07:10.095Z,100446.84
2022-08-04T21:09:50.636Z,100447.94
2022-08-04T21:12:28.540Z,100454.16
2022-08-04T21:15:13.700Z,100452.69
2022-08-04T21:17:57.960Z,100450.11
2022-08-04T21:20:39.535Z,100451.13
2022-08-04T21:23:12.224Z,100453.05
2022-08-04T21:25:51.182Z,100453.96
2022-08-04T21:28:21.574Z,100453.09
2022-08-04T21:30:55.793Z,100448.92
2022-08-04T21:33:50.044Z,100448.60
2022-08-04T21:36:27.431Z,100447.01
2022-08-04T21:38:57.430Z,100449.04
2022-08-04T21:41:27.262Z,100449.58
2022-08-04T21:43:59.478Z,100449.98
2022-08-04T21:46:31.349Z,100448.46
2022-08-04T21:49:02.560Z,100444.50
2022-08-04T21:51:58.488Z,100444.40
2022-08-04T21:54:28.376Z,100444.16
2022-08-04T21:56:57.567Z,100443.77
2022-08-04T21:59:34.040Z,100447.91
2022-08-04T22:02:15.335Z,100450.41
2022-08-04T22:04:57.181Z,100450.45
2022-08-04T22:07:50.483Z,100450.75
2022-08-04T22:10:22.413Z,100453.72
2022-08-04T22:13:06.861Z,100456.25
2022-08-04T22:16:05.423Z,100449.23
2022-08-04T22:18:28.033Z,100449.88
2022-08-04T22:20:59.838Z,100448.16
2022-08-04T22:23:31.037Z,100446.30
2022-08-04T22:26:26.814Z,100445.16
2022-08-04T22:28:58.455Z,100444.22
2022-08-04T22:31:29.365Z,100446.45
2022-08-04T22:34:18.311Z,100446.02
2022-08-04T22:36:48.197Z,100446.81
2022-08-04T22:39:17.180Z,100448.48
2022-08-04T22:42:04.375Z,100451.27
2022-08-04T22:44:34.135Z,100448.85
2022-08-04T22:47:06.048Z,100447.95
2022-08-04T22:49:37.874Z,100441.80
2022-08-04T22:52:12.637Z,100443.45
2022-08-04T22:54:50.888Z,100438.81
2022-08-04T22:57:20.844Z,100435.67
2022-08-04T23:00:11.978Z,100436.38
2022-08-04T23:02:42.965Z,100434.78
2022-08-04T23:05:15.757Z,100436.91
2022-08-04T23:07:49.190Z,100436.11
2022-08-04T23:10:18.878Z,100434.49
2022-08-04T23:12:53.632Z,100429.38
2022-08-04T23:15:22.569Z,100428.45
2022-08-04T23:17:51.836Z,100428.67
2022-08-04T23:20:23.410Z,100427.15
2022-08-04T23:23:12.327Z,100425.75
2022-08-04T23:26:07.080Z,100423.69
2022-08-04T23:28:34.859Z,100421.52
2022-08-04T23:31:05.527Z,100423.45
2022-08-04T23:33:50.946Z,100421.45
2022-08-04T23:36:30.073Z,100419.48
2022-08-04T23:39:04.061Z,100417.40
2022-08-04T23:41:54.669Z,100416.23
2022-08-04T23:44:26.750Z,100418.42
2022-08-04T23:47:04.633Z,100420.11
2022-08-04T23:49:44.874Z,100417.60
2022-08-04T23:52:27.923Z,100415.63
2022-08-04T23:54:59.616Z,100410.59
2022-08-04T23:57:31.406Z,100406.48
